Terminal Aerodrome Forecast
Issued by NWS

Home | Current Version | Previous Version | Text Only | Print | Product List | Glossary On
Versions: 1 2 3 4 5 6 7 8 9 10 11 12 13 14 15 16 17 18 19 20 21 22 23
000
FTUS41 KILN 250100 AAA
TAFLCK
TAF AMD
KLCK 250158Z 2502/2524 26008KT P6SM BKN022 OVC060
     FM250500 23005KT P6SM OVC025
     FM251300 17005KT P6SM OVC025
      TEMPO 2515/2517 5SM -RA
     FM251700 10005KT 2SM -RA OVC010
     FM252100 08009KT 1SM -SN OVC006=

USA.gov is the U.S. government's official web portal to all federal, state and local government web resources and services.